Time;durP1;ratioP1;P1;durP2;ratioP2;P2;SDS_P1;SDS_P2;PMS_P1;PMS_P2;Temp;Humidity;BMP_temperature;BMP_pressure;BME280_temperature;BME280_humidity;BME280_pressure;Samples;Min_cycle;Max_cycle;Signal;HPM_P1;HPM_P2
2021/04/05 06:02:06;;;;;;;;;;;;;;;;;;5281963;23;1676;-67
2021/04/05 06:04:58;;;;;;;;;;;;;;;;;;4940368;29;813;-68
2021/04/05 06:07:23;;;;;;;;;;;;;;;;;;4928943;29;1245;-68
2021/04/05 06:09:54;;;;;;;;;;;;;;;;;;4936671;29;1227;-70
2021/04/05 06:12:37;;;;;;;;;;;;;;;;;;4937787;29;1354;-70
2021/04/05 06:15:20;;;;;;;;;;;;;;;;;;4937462;29;1939;-70
2021/04/05 06:17:57;;;;;;;;;;;;;;;;;;4937675;29;949;-70
2021/04/05 06:20:27;;;;;;;;;;;;;;;;;;4936198;29;1551;-69
2021/04/05 06:23:04;;;;;;;;;;;;;;;;;;4937684;29;904;-70
2021/04/05 06:25:45;;;;;;;;;;;;;;;;;;4937589;29;905;-69
2021/04/05 06:28:22;;;;;;;;;;;;;;;;;;4937607;29;897;-70
2021/04/05 06:31:05;;;;;;;;;;;;;;;;;;4936562;29;1327;-71
2021/04/05 06:33:32;;;;;;;;;;;;;;;;;;4937076;29;1910;-70
2021/04/05 06:36:05;;;;;;;;;;;;;;;;;;4937613;29;997;-71
2021/04/05 06:38:33;;;;;;;;;;;;;;;;;;4937457;29;992;-69
2021/04/05 06:41:06;;;;;;;;;;;;;;;;;;4936230;29;1327;-70
2021/04/05 06:43:49;;;;;;;;;;;;;;;;;;4936108;29;948;-71
2021/04/05 06:46:15;;;;;;;;;;;;;;;;;;4936100;29;1421;-70
2021/04/05 06:48:40;;;;;;;;;;;;;;;;;;4937389;29;865;-70
2021/04/05 06:51:24;;;;;;;;;;;;;;;;;;4936029;29;1530;-69
2021/04/05 06:54:05;;;;;;;;;;;;;;;;;;4935987;29;1895;-70
2021/04/05 06:56:50;;;;;;;;;;;;;;;;;;4936118;29;848;-70
2021/04/05 06:59:33;;;;;;;;;;;;;;;;;;4935888;29;857;-69
2021/04/05 07:02:08;;;;;;;;;;;;;;;;;;4935854;29;2359;-71
2021/04/05 07:04:36;;;;;;;;;;;;;;;;;;4936078;29;1107;-71
2021/04/05 07:07:10;;;;;;;;;;;;;;;;;;4936307;29;1170;-69
2021/04/05 07:09:53;;;;;;;;;;;;;;;;;;4937066;29;885;-69
2021/04/05 07:12:27;;;;;;;;;;;;;;;;;;4936211;29;1382;-69
2021/04/05 07:14:55;;;;;;;;;;;;;;;;;;4936809;29;1959;-67
2021/04/05 07:17:45;;;;;;;;;;;;;;;;;;4936223;29;1183;-67
2021/04/05 07:20:16;;;;;;;;;;;;;;;;;;4940515;29;1291;-69
2021/04/05 07:23:00;;;;;;;;;;;;;;;;;;4940698;29;865;-68
2021/04/05 07:25:25;;;;;;;;;;;;;;;;;;4940642;29;878;-68
2021/04/05 07:28:08;;;;;;;;;;;;;;;;;;4939530;29;1214;-69
2021/04/05 07:30:42;;;;;;;;;;;;;;;;;;4939381;29;1469;-68
2021/04/05 07:33:18;;;;;;;;;;;;;;;;;;4939289;29;1174;-68
2021/04/05 07:35:58;;;;;;;;;;;;;;;;;;4939108;29;1194;-67
2021/04/05 07:38:27;;;;;;;;;;;;;;;;;;4940512;29;778;-69
2021/04/05 07:40:53;;;;;;;;;;;;;;;;;;4939182;29;1379;-68
2021/04/05 07:43:36;;;;;;;;;;;;;;;;;;4940480;29;853;-67
2021/04/05 07:46:04;;;;;;;;;;;;;;;;;;4940334;29;810;-67
2021/04/05 07:48:34;;;;;;;;;;;;;;;;;;4939306;29;1198;-68
2021/04/05 07:51:08;;;;;;;;;;;;;;;;;;4938739;29;1453;-68
2021/04/05 07:53:41;;;;;;;;;;;;;;;;;;4939013;29;1895;-67
2021/04/05 07:56:18;;;;;;;;;;;;;;;;;;4940247;29;952;-67
2021/04/05 07:59:02;;;;;;;;;;;;;;;;;;4940392;29;1044;-67
2021/04/05 08:01:30;;;;;;;;;;;;;;;;;;4938514;29;1358;-69
2021/04/05 08:04:13;;;;;;;;;;;;;;;;;;4939962;29;905;-68
2021/04/05 08:06:47;;;;;;;;;;;;;;;;;;4938800;29;1185;-68
2021/04/05 08:09:14;;;;;;;;;;;;;;;;;;4938864;29;1268;-68
2021/04/05 08:11:58;;;;;;;;;;;;;;;;;;4938685;29;1315;-69
2021/04/05 08:14:23;;;;;;;;;;;;;;;;;;4938277;29;1898;-69
2021/04/05 08:16:48;;;;;;;;;;;;;;;;;;4938864;29;1119;-68
2021/04/05 08:19:22;;;;;;;;;;;;;;;;;;4938580;29;1333;-68
2021/04/05 08:21:53;;;;;;;;;;;;;;;;;;4939778;29;1335;-68
2021/04/05 08:24:36;;;;;;;;;;;;;;;;;;4939972;29;877;-67
2021/04/05 08:27:01;;;;;;;;;;;;;;;;;;4938260;29;1339;-67
2021/04/05 08:29:36;;;;;;;;;;;;;;;;;;4939539;29;774;-69
2021/04/05 08:32:20;;;;;;;;;;;;;;;;;;4938859;29;1291;-67
2021/04/05 08:35:04;;;;;;;;;;;;;;;;;;4939551;29;1878;-69
2021/04/05 08:37:40;;;;;;;;;;;;;;;;;;4938218;29;1194;-69
2021/04/05 08:40:23;;;;;;;;;;;;;;;;;;4939412;29;1359;-67
2021/04/05 08:43:00;;;;;;;;;;;;;;;;;;4939258;29;861;-69
2021/04/05 08:45:32;;;;;;;;;;;;;;;;;;4938372;29;889;-68
2021/04/05 08:48:04;;;;;;;;;;;;;;;;;;4939473;29;802;-69
2021/04/05 08:50:31;;;;;;;;;;;;;;;;;;4937942;29;1420;-68
2021/04/05 08:52:56;;;;;;;;;;;;;;;;;;4939208;29;885;-68
2021/04/05 08:55:24;;;;;;;;;;;;;;;;;;4938832;29;1949;-68
2021/04/05 08:58:01;;;;;;;;;;;;;;;;;;4939026;29;866;-69
2021/04/05 09:00:29;;;;;;;;;;;;;;;;;;4939072;29;1350;-67
2021/04/05 09:02:56;;;;;;;;;;;;;;;;;;4938964;29;855;-68
2021/04/05 09:05:25;;;;;;;;;;;;;;;;;;4938685;29;894;-68
2021/04/05 09:08:04;;;;;;;;;;;;;;;;;;4938803;29;870;-68
2021/04/05 09:10:31;;;;;;;;;;;;;;;;;;4937439;29;1405;-68
2021/04/05 09:12:58;;;;;;;;;;;;;;;;;;4938794;29;831;-68
2021/04/05 09:15:27;;;;;;;;;;;;;;;;;;4937340;29;1899;-69
2021/04/05 09:18:11;;;;;;;;;;;;;;;;;;4938658;29;868;-68
2021/04/05 09:20:51;;;;;;;;;;;;;;;;;;4937246;29;1457;-67
2021/04/05 09:23:35;;;;;;;;;;;;;;;;;;4938388;29;881;-68
2021/04/05 09:26:03;;;;;;;;;;;;;;;;;;4938558;29;922;-68
2021/04/05 09:28:38;;;;;;;;;;;;;;;;;;4938578;29;957;-68
2021/04/05 09:31:07;;;;;;;;;;;;;;;;;;4969342;28;1453;-69
2021/04/05 09:33:35;;;;;;;;;;;;;;;;;;4937994;29;1890;-68
2021/04/05 09:36:19;;;;;;;;;;;;;;;;;;4938405;29;880;-68
2021/04/05 09:39:04;;;;;;;;;;;;;;;;;;4937159;29;1221;-66
2021/04/05 09:41:29;;;;;;;;;;;;;;;;;;4938103;29;1378;-68
2021/04/05 09:44:13;;;;;;;;;;;;;;;;;;4936848;29;1219;-66
2021/04/05 09:46:57;;;;;;;;;;;;;;;;;;4937156;29;1226;-68
2021/04/05 09:49:33;;;;;;;;;;;;;;;;;;4936738;29;1161;-67
2021/04/05 09:52:07;;;;;;;;;;;;;;;;;;4936990;29;1370;-66
2021/04/05 09:54:32;;;;;;;;;;;;;;;;;;4937958;29;1911;-69
2021/04/05 09:57:03;;;;;;;;;;;;;;;;;;4938072;29;889;-68
2021/04/05 09:59:40;;;;;;;;;;;;;;;;;;4938067;29;834;-67
2021/04/05 10:02:08;;;;;;;;;;;;;;;;;;4937817;29;1323;-68
2021/04/05 10:04:34;;;;;;;;;;;;;;;;;;4937901;29;888;-68
2021/04/05 10:07:00;;;;;;;;;;;;;;;;;;4937942;29;901;-69
2021/04/05 10:09:27;;;;;;;;;;;;;;;;;;4936640;29;918;-68
2021/04/05 10:11:53;;;;;;;;;;;;;;;;;;4937862;29;1359;-68
2021/04/05 10:14:21;;;;;;;;;;;;;;;;;;4936243;29;1903;-68
2021/04/05 10:16:52;;;;;;;;;;;;;;;;;;4937663;29;974;-67
2021/04/05 10:19:22;;;;;;;;;;;;;;;;;;4936521;29;1218;-68
2021/04/05 10:21:51;;;;;;;;;;;;;;;;;;4936395;29;1343;-68
2021/04/05 10:24:20;;;;;;;;;;;;;;;;;;4937295;29;917;-67
2021/04/05 10:26:48;;;;;;;;;;;;;;;;;;4936353;29;1202;-68
2021/04/05 10:29:14;;;;;;;;;;;;;;;;;;4937576;29;829;-68
2021/04/05 10:31:41;;;;;;;;;;;;;;;;;;4937466;29;1371;-68
2021/04/05 10:34:07;;;;;;;;;;;;;;;;;;4936106;29;1961;-67
2021/04/05 10:36:46;;;;;;;;;;;;;;;;;;4937341;29;1000;-67
2021/04/05 10:39:12;;;;;;;;;;;;;;;;;;4937458;29;905;-67
2021/04/05 10:41:55;;;;;;;;;;;;;;;;;;4937482;29;1311;-67
2021/04/05 10:44:22;;;;;;;;;;;;;;;;;;4937239;29;929;-67
2021/04/05 10:46:52;;;;;;;;;;;;;;;;;;4937366;29;873;-68
2021/04/05 10:49:23;;;;;;;;;;;;;;;;;;4937116;29;1180;-67
2021/04/05 10:51:51;;;;;;;;;;;;;;;;;;4941743;28;1569;-69
2021/04/05 10:54:16;;;;;;;;;;;;;;;;;;4966734;28;2003;-67
2021/04/05 10:56:49;;;;;;;;;;;;;;;;;;4962765;29;894;-68
2021/04/05 10:59:18;;;;;;;;;;;;;;;;;;4962645;29;814;-67
2021/04/05 11:01:47;;;;;;;;;;;;;;;;;;4962640;29;1445;-67
2021/04/05 11:04:13;;;;;;;;;;;;;;;;;;4962679;29;929;-67
2021/04/05 11:06:38;;;;;;;;;;;;;;;;;;4962726;28;821;-68
2021/04/05 11:09:08;;;;;;;;;;;;;;;;;;4962612;28;864;-67
2021/04/05 11:11:34;;;;;;;;;;;;;;;;;;4962321;29;1394;-68
2021/04/05 11:14:03;;;;;;;;;;;;;;;;;;4962291;28;1902;-67
2021/04/05 11:16:29;;;;;;;;;;;;;;;;;;4962490;29;898;-67
2021/04/05 11:18:56;;;;;;;;;;;;;;;;;;4961464;28;1295;-68
2021/04/05 11:21:32;;;;;;;;;;;;;;;;;;4962481;29;1370;-67
2021/04/05 11:23:57;;;;;;;;;;;;;;;;;;4962065;29;826;-68
2021/04/05 11:26:29;;;;;;;;;;;;;;;;;;4962785;29;814;-68
2021/04/05 11:28:57;;;;;;;;;;;;;;;;;;4962506;29;917;-67
2021/04/05 11:31:23;;;;;;;;;;;;;;;;;;4962513;28;1374;-67
2021/04/05 11:33:49;;;;;;;;;;;;;;;;;;4962189;29;1965;-68
2021/04/05 11:36:14;;;;;;;;;;;;;;;;;;4961169;29;905;-69
2021/04/05 11:38:44;;;;;;;;;;;;;;;;;;4960951;29;1273;-68
2021/04/05 11:41:10;;;;;;;;;;;;;;;;;;4962410;28;1291;-68
2021/04/05 11:43:38;;;;;;;;;;;;;;;;;;4962263;28;881;-68
2021/04/05 11:46:10;;;;;;;;;;;;;;;;;;4961088;29;1635;-67
2021/04/05 11:48:36;;;;;;;;;;;;;;;;;;4962212;28;849;-68
2021/04/05 11:51:01;;;;;;;;;;;;;;;;;;4961029;29;1371;-68
2021/04/05 11:53:52;;;;;;;;;;;;;;;;;;4962312;29;1879;-69
2021/04/05 11:56:19;;;;;;;;;;;;;;;;;;4962190;28;897;-67
2021/04/05 11:58:47;;;;;;;;;;;;;;;;;;4961950;28;1089;-69
2021/04/05 12:01:16;;;;;;;;;;;;;;;;;;4962150;28;1299;-69
2021/04/05 12:03:49;;;;;;;;;;;;;;;;;;4960764;29;1240;-67
2021/04/05 12:06:17;;;;;;;;;;;;;;;;;;4959302;28;972;-68
2021/04/05 12:08:45;;;;;;;;;;;;;;;;;;4959112;29;854;-68
2021/04/05 12:11:12;;;;;;;;;;;;;;;;;;4958971;29;1433;-68
2021/04/05 12:13:41;;;;;;;;;;;;;;;;;;4958923;29;1890;-67
2021/04/05 12:16:07;;;;;;;;;;;;;;;;;;4959034;29;859;-67
2021/04/05 12:18:33;;;;;;;;;;;;;;;;;;4957691;29;1468;-68
2021/04/05 12:21:04;;;;;;;;;;;;;;;;;;4959095;29;1303;-67
2021/04/05 12:23:30;;;;;;;;;;;;;;;;;;4958738;29;1140;-68
2021/04/05 12:25:55;;;;;;;;;;;;;;;;;;4957805;29;1432;-67
2021/04/05 12:28:21;;;;;;;;;;;;;;;;;;4958640;29;925;-69
2021/04/05 12:30:46;;;;;;;;;;;;;;;;;;4957368;29;1303;-68
2021/04/05 12:33:14;;;;;;;;;;;;;;;;;;4958558;29;797;-67
2021/04/05 12:35:41;;;;;;;;;;;;;;;;;;4958658;29;1916;-68
2021/04/05 12:38:07;;;;;;;;;;;;;;;;;;4957410;29;1235;-68
2021/04/05 12:40:34;;;;;;;;;;;;;;;;;;4958586;29;1321;-67
2021/04/05 12:43:07;;;;;;;;;;;;;;;;;;4957324;29;1635;-68
2021/04/05 12:45:36;;;;;;;;;;;;;;;;;;4958697;29;1170;-68
2021/04/05 12:48:02;;;;;;;;;;;;;;;;;;4958582;29;878;-68
2021/04/05 12:50:30;;;;;;;;;;;;;;;;;;4958453;29;1295;-68
2021/04/05 12:53:04;;;;;;;;;;;;;;;;;;4956981;29;1341;-67
2021/04/05 12:55:33;;;;;;;;;;;;;;;;;;4956698;29;1891;-66
2021/04/05 12:57:59;;;;;;;;;;;;;;;;;;4958296;29;853;-68
2021/04/05 13:00:25;;;;;;;;;;;;;;;;;;4958108;29;1290;-68
2021/04/05 13:03:20;;;;;;;;;;;;;;;;;;4956890;29;1470;-67
2021/04/05 13:05:45;;;;;;;;;;;;;;;;;;4949406;28;1157;-67
2021/04/05 13:08:29;;;;;;;;;;;;;;;;;;4958045;29;873;-66
2021/04/05 13:11:23;;;;;;;;;;;;;;;;;;4957732;29;1315;-67
2021/04/05 13:13:51;;;;;;;;;;;;;;;;;;4906202;29;1932;-68
2021/04/05 13:16:19;;;;;;;;;;;;;;;;;;4956119;28;1162;-68
2021/04/05 13:18:47;;;;;;;;;;;;;;;;;;4956873;29;826;-68
2021/04/05 13:21:16;;;;;;;;;;;;;;;;;;4956399;29;1288;-68
2021/04/05 13:23:48;;;;;;;;;;;;;;;;;;4957511;29;830;-68
2021/04/05 13:26:16;;;;;;;;;;;;;;;;;;4957798;29;973;-68
2021/04/05 13:28:43;;;;;;;;;;;;;;;;;;4957633;29;889;-67
2021/04/05 13:31:09;;;;;;;;;;;;;;;;;;4956264;29;1433;-66
2021/04/05 13:33:36;;;;;;;;;;;;;;;;;;4957130;29;1886;-68
2021/04/05 13:36:12;;;;;;;;;;;;;;;;;;4956404;29;1236;-68
2021/04/05 13:38:38;;;;;;;;;;;;;;;;;;4957449;29;894;-67
2021/04/05 13:41:05;;;;;;;;;;;;;;;;;;4956182;29;1441;-68
2021/04/05 13:43:30;;;;;;;;;;;;;;;;;;4957035;29;908;-67
2021/04/05 13:45:56;;;;;;;;;;;;;;;;;;4957434;29;988;-67
2021/04/05 13:48:30;;;;;;;;;;;;;;;;;;4957498;29;1028;-68
2021/04/05 13:50:57;;;;;;;;;;;;;;;;;;4955878;29;1354;-68
2021/04/05 13:53:34;;;;;;;;;;;;;;;;;;4955686;29;901;-67
2021/04/05 13:56:01;;;;;;;;;;;;;;;;;;4957239;29;1020;-67
2021/04/05 13:58:46;;;;;;;;;;;;;;;;;;4957787;29;1374;-69
2021/04/05 14:01:14;;;;;;;;;;;;;;;;;;4955041;29;1397;-66
2021/04/05 14:03:43;;;;;;;;;;;;;;;;;;4956935;29;924;-69
2021/04/05 14:06:14;;;;;;;;;;;;;;;;;;4957380;29;944;-67
2021/04/05 14:08:43;;;;;;;;;;;;;;;;;;4956035;29;1364;-67
2021/04/05 14:11:13;;;;;;;;;;;;;;;;;;4955945;29;1299;-68
2021/04/05 14:13:39;;;;;;;;;;;;;;;;;;4956603;29;1956;-69
2021/04/05 14:16:13;;;;;;;;;;;;;;;;;;4956724;29;857;-69
2021/04/05 14:18:39;;;;;;;;;;;;;;;;;;4957003;29;896;-68
2021/04/05 14:21:06;;;;;;;;;;;;;;;;;;4956797;29;1393;-69
2021/04/05 14:23:33;;;;;;;;;;;;;;;;;;4956529;29;842;-68
2021/04/05 14:26:02;;;;;;;;;;;;;;;;;;4956584;29;877;-68
2021/04/05 14:28:32;;;;;;;;;;;;;;;;;;4954699;28;1198;-69
2021/04/05 14:31:05;;;;;;;;;;;;;;;;;;4956318;29;1315;-68
2021/04/05 14:33:32;;;;;;;;;;;;;;;;;;4955128;29;1244;-68
2021/04/05 14:35:59;;;;;;;;;;;;;;;;;;4956704;29;905;-68
2021/04/05 14:38:25;;;;;;;;;;;;;;;;;;4956831;29;802;-67
2021/04/05 14:40:53;;;;;;;;;;;;;;;;;;4955291;29;1621;-69
2021/04/05 14:43:37;;;;;;;;;;;;;;;;;;4956396;29;937;-68
2021/04/05 14:46:04;;;;;;;;;;;;;;;;;;4955182;29;2217;-68
2021/04/05 14:48:29;;;;;;;;;;;;;;;;;;4956678;29;842;-69
2021/04/05 14:50:55;;;;;;;;;;;;;;;;;;4955307;29;1433;-67
2021/04/05 14:53:47;;;;;;;;;;;;;;;;;;4955059;29;1814;-68
2021/04/05 14:56:13;;;;;;;;;;;;;;;;;;4954712;29;1369;-68
2021/04/05 14:58:39;;;;;;;;;;;;;;;;;;4954798;29;1429;-68
2021/04/05 15:01:15;;;;;;;;;;;;;;;;;;4955020;29;1349;-70
2021/04/05 15:03:43;;;;;;;;;;;;;;;;;;4956320;29;818;-70
2021/04/05 15:06:10;;;;;;;;;;;;;;;;;;4956327;29;917;-71
2021/04/05 15:08:43;;;;;;;;;;;;;;;;;;4955067;29;1206;-70
2021/04/05 15:11:11;;;;;;;;;;;;;;;;;;4954949;29;1545;-69
2021/04/05 15:13:40;;;;;;;;;;;;;;;;;;4956069;29;1895;-70
2021/04/05 15:16:09;;;;;;;;;;;;;;;;;;4956205;29;873;-70
2021/04/05 15:18:38;;;;;;;;;;;;;;;;;;4956273;29;900;-70
2021/04/05 15:21:04;;;;;;;;;;;;;;;;;;4955912;29;1331;-70
2021/04/05 15:23:33;;;;;;;;;;;;;;;;;;4956124;29;877;-70
2021/04/05 15:26:00;;;;;;;;;;;;;;;;;;4954771;29;1285;-70
2021/04/05 15:28:29;;;;;;;;;;;;;;;;;;4956153;29;970;-70
2021/04/05 15:30:56;;;;;;;;;;;;;;;;;;4954701;29;1287;-70
2021/04/05 15:33:29;;;;;;;;;;;;;;;;;;4954486;29;1344;-70
2021/04/05 15:35:55;;;;;;;;;;;;;;;;;;4956220;29;1898;-70
2021/04/05 15:38:28;;;;;;;;;;;;;;;;;;4956209;29;846;-70
2021/04/05 15:40:54;;;;;;;;;;;;;;;;;;4957480;28;1477;-70
2021/04/05 15:43:22;;;;;;;;;;;;;;;;;;4958385;29;1415;-70
2021/04/05 15:45:58;;;;;;;;;;;;;;;;;;4958138;29;1336;-70
2021/04/05 15:48:36;;;;;;;;;;;;;;;;;;4958207;29;794;-68
2021/04/05 15:51:13;;;;;;;;;;;;;;;;;;4958178;29;1538;-66
2021/04/05 15:53:44;;;;;;;;;;;;;;;;;;4957670;29;1956;-67
2021/04/05 15:56:10;;;;;;;;;;;;;;;;;;4959427;29;822;-66
2021/04/05 15:58:41;;;;;;;;;;;;;;;;;;4959303;29;802;-66
2021/04/05 16:01:09;;;;;;;;;;;;;;;;;;4957870;29;1346;-66
2021/04/05 16:03:46;;;;;;;;;;;;;;;;;;4958971;29;988;-66
2021/04/05 16:06:15;;;;;;;;;;;;;;;;;;4959250;29;810;-66
2021/04/05 16:08:51;;;;;;;;;;;;;;;;;;4959038;29;983;-66
2021/04/05 16:11:28;;;;;;;;;;;;;;;;;;4958985;29;1331;-65
2021/04/05 16:14:09;;;;;;;;;;;;;;;;;;4958591;29;1894;-66
2021/04/05 16:16:36;;;;;;;;;;;;;;;;;;4957331;29;1661;-65
2021/04/05 16:19:06;;;;;;;;;;;;;;;;;;4956845;29;1193;-65
2021/04/05 16:21:33;;;;;;;;;;;;;;;;;;4957513;29;1291;-65
2021/04/05 16:23:59;;;;;;;;;;;;;;;;;;4958377;29;1385;-65
2021/04/05 16:26:27;;;;;;;;;;;;;;;;;;4957834;29;846;-65
2021/04/05 16:28:59;;;;;;;;;;;;;;;;;;4957841;29;1992;-66
2021/04/05 16:31:28;;;;;;;;;;;;;;;;;;4958765;29;1330;-65
2021/04/05 16:33:56;;;;;;;;;;;;;;;;;;4957941;29;1894;-65
2021/04/05 16:36:26;;;;;;;;;;;;;;;;;;4957777;29;858;-65
2021/04/05 16:38:53;;;;;;;;;;;;;;;;;;4958509;29;869;-65
2021/04/05 16:41:23;;;;;;;;;;;;;;;;;;4958232;29;1351;-65
2021/04/05 16:43:53;;;;;;;;;;;;;;;;;;4957166;29;1245;-65
2021/04/05 16:46:20;;;;;;;;;;;;;;;;;;4940804;29;1377;-65
2021/04/05 16:48:47;;;;;;;;;;;;;;;;;;4957155;29;1405;-64
2021/04/05 16:51:15;;;;;;;;;;;;;;;;;;4955313;28;1413;-64
2021/04/05 16:53:43;;;;;;;;;;;;;;;;;;4957757;29;1902;-65
2021/04/05 16:56:10;;;;;;;;;;;;;;;;;;4958161;29;814;-65
2021/04/05 16:58:41;;;;;;;;;;;;;;;;;;4957178;29;1203;-65
2021/04/05 17:01:07;;;;;;;;;;;;;;;;;;4958215;29;1295;-66
2021/04/05 17:03:33;;;;;;;;;;;;;;;;;;4957796;29;893;-65
2021/04/05 17:06:18;;;;;;;;;;;;;;;;;;4957982;29;1120;-65
2021/04/05 17:08:47;;;;;;;;;;;;;;;;;;4957389;29;1169;-66
2021/04/05 17:11:19;;;;;;;;;;;;;;;;;;4957819;29;1350;-66
2021/04/05 17:13:47;;;;;;;;;;;;;;;;;;4956341;29;1934;-65
2021/04/05 17:16:22;;;;;;;;;;;;;;;;;;4956570;29;1162;-65
2021/04/05 17:18:49;;;;;;;;;;;;;;;;;;4957833;29;814;-65
2021/04/05 17:21:15;;;;;;;;;;;;;;;;;;4956452;29;1542;-65
2021/04/05 17:23:44;;;;;;;;;;;;;;;;;;4957155;29;1093;-65
2021/04/05 17:26:13;;;;;;;;;;;;;;;;;;4957663;29;986;-66
2021/04/05 17:28:41;;;;;;;;;;;;;;;;;;4957861;29;802;-66
2021/04/05 17:31:08;;;;;;;;;;;;;;;;;;4957412;29;1334;-66
2021/04/05 17:33:39;;;;;;;;;;;;;;;;;;4956097;29;1283;-65
2021/04/05 17:36:18;;;;;;;;;;;;;;;;;;4957558;29;964;-65
2021/04/05 17:38:52;;;;;;;;;;;;;;;;;;4957362;29;869;-66
2021/04/05 17:41:27;;;;;;;;;;;;;;;;;;4956331;29;1394;-65
2021/04/05 17:43:58;;;;;;;;;;;;;;;;;;4957445;29;885;-65
2021/04/05 17:46:42;;;;;;;;;;;;;;;;;;4957357;29;855;-64
2021/04/05 17:49:26;;;;;;;;;;;;;;;;;;4956019;29;1099;-65
2021/04/05 17:52:10;;;;;;;;;;;;;;;;;;4966855;28;1442;-65
2021/04/05 17:54:57;;;;;;;;;;;;;;;;;;4960181;28;1899;-65
2021/04/05 17:57:30;;;;;;;;;;;;;;;;;;4955764;29;1181;-65
2021/04/05 18:00:09;;;;;;;;;;;;;;;;;;4956878;29;917;-65
2021/04/05 18:02:49;;;;;;;;;;;;;;;;;;4956221;28;881;-65
2021/04/05 18:05:32;;;;;;;;;;;;;;;;;;4956686;29;949;-65
2021/04/05 18:08:13;;;;;;;;;;;;;;;;;;4955275;29;873;-66
2021/04/05 18:10:44;;;;;;;;;;;;;;;;;;4955900;29;1401;-66
2021/04/05 18:13:36;;;;;;;;;;;;;;;;;;4956795;29;893;-66
2021/04/05 18:16:14;;;;;;;;;;;;;;;;;;4955447;29;1891;-66
2021/04/05 18:18:43;;;;;;;;;;;;;;;;;;4957050;29;845;-66
2021/04/05 18:21:29;;;;;;;;;;;;;;;;;;4955429;29;1713;-66
2021/04/05 18:23:55;;;;;;;;;;;;;;;;;;4956577;29;826;-66
2021/04/05 18:26:38;;;;;;;;;;;;;;;;;;4956692;29;926;-66
2021/04/05 18:29:19;;;;;;;;;;;;;;;;;;4956691;29;865;-66
2021/04/05 18:31:47;;;;;;;;;;;;;;;;;;4955279;29;1429;-66
2021/04/05 18:34:38;;;;;;;;;;;;;;;;;;4956332;29;1902;-66
2021/04/05 18:37:12;;;;;;;;;;;;;;;;;;4933322;29;1333;-66
2021/04/05 18:39:40;;;;;;;;;;;;;;;;;;4956611;29;850;-66
2021/04/05 18:42:06;;;;;;;;;;;;;;;;;;4956393;29;1311;-66
2021/04/05 18:44:33;;;;;;;;;;;;;;;;;;4955321;29;1213;-65
2021/04/05 18:46:59;;;;;;;;;;;;;;;;;;4956193;29;879;-65
2021/04/05 18:49:39;;;;;;;;;;;;;;;;;;4956513;29;972;-66
2021/04/05 18:52:07;;;;;;;;;;;;;;;;;;4956266;29;1925;-65
2021/04/05 18:54:36;;;;;;;;;;;;;;;;;;4954878;29;1894;-66
2021/04/05 18:57:07;;;;;;;;;;;;;;;;;;4954894;29;1293;-66
2021/04/05 18:59:47;;;;;;;;;;;;;;;;;;4956160;29;929;-66
2021/04/05 19:02:14;;;;;;;;;;;;;;;;;;4956100;29;1346;-66
2021/04/05 19:04:47;;;;;;;;;;;;;;;;;;4955257;28;1511;-66
2021/04/05 19:07:18;;;;;;;;;;;;;;;;;;4955036;29;1352;-67
2021/04/05 19:09:46;;;;;;;;;;;;;;;;;;4956210;29;908;-68
2021/04/05 19:12:15;;;;;;;;;;;;;;;;;;4954855;29;1474;-67
2021/04/05 19:14:49;;;;;;;;;;;;;;;;;;4955133;28;1965;-67
2021/04/05 19:17:17;;;;;;;;;;;;;;;;;;4960959;28;1105;-68
2021/04/05 19:19:47;;;;;;;;;;;;;;;;;;4978054;28;1428;-68
2021/04/05 19:22:31;;;;;;;;;;;;;;;;;;4979172;28;1350;-68
2021/04/05 19:25:15;;;;;;;;;;;;;;;;;;4977644;28;1363;-68
2021/04/05 19:27:56;;;;;;;;;;;;;;;;;;4978935;28;890;-68
2021/04/05 19:30:40;;;;;;;;;;;;;;;;;;4978869;28;1417;-69
2021/04/05 19:33:16;;;;;;;;;;;;;;;;;;4978930;28;814;-68
2021/04/05 19:35:42;;;;;;;;;;;;;;;;;;4978953;28;1898;-68
2021/04/05 19:38:16;;;;;;;;;;;;;;;;;;4977803;28;1333;-68
2021/04/05 19:40:48;;;;;;;;;;;;;;;;;;4978914;28;1318;-68
2021/04/05 19:43:20;;;;;;;;;;;;;;;;;;4977265;28;1319;-67
2021/04/05 19:45:48;;;;;;;;;;;;;;;;;;4977492;28;866;-69
2021/04/05 19:48:25;;;;;;;;;;;;;;;;;;4978196;28;885;-68
2021/04/05 19:51:00;;;;;;;;;;;;;;;;;;4976858;28;1366;-67
2021/04/05 19:53:43;;;;;;;;;;;;;;;;;;4977469;28;897;-69
2021/04/05 19:56:28;;;;;;;;;;;;;;;;;;4978436;28;796;-70
2021/04/05 19:58:53;;;;;;;;;;;;;;;;;;4978323;28;873;-69
2021/04/05 20:01:37;;;;;;;;;;;;;;;;;;4977758;28;1370;-69
2021/04/05 20:04:08;;;;;;;;;;;;;;;;;;4977385;28;996;-69
2021/04/05 20:06:45;;;;;;;;;;;;;;;;;;4977784;28;984;-68
2021/04/05 20:09:14;;;;;;;;;;;;;;;;;;4977825;28;838;-68
2021/04/05 20:11:57;;;;;;;;;;;;;;;;;;4977677;28;1339;-68
2021/04/05 20:14:36;;;;;;;;;;;;;;;;;;4976409;28;2229;-68
2021/04/05 20:17:04;;;;;;;;;;;;;;;;;;4977782;28;826;-68
2021/04/05 20:19:34;;;;;;;;;;;;;;;;;;4976483;28;1292;-68
2021/04/05 20:22:01;;;;;;;;;;;;;;;;;;4976343;28;1358;-67
2021/04/05 20:24:38;;;;;;;;;;;;;;;;;;4976648;28;814;-68
2021/04/05 20:27:12;;;;;;;;;;;;;;;;;;4975019;28;1230;-68
2021/04/05 20:29:41;;;;;;;;;;;;;;;;;;4976351;28;1223;-68
2021/04/05 20:32:17;;;;;;;;;;;;;;;;;;4976088;28;1437;-67
2021/04/05 20:35:01;;;;;;;;;;;;;;;;;;4977496;28;1962;-67
2021/04/05 20:37:30;;;;;;;;;;;;;;;;;;4976121;28;1246;-70
2021/04/05 20:39:56;;;;;;;;;;;;;;;;;;4976129;28;1215;-67
2021/04/05 20:42:41;;;;;;;;;;;;;;;;;;4977279;28;1410;-67
2021/04/05 20:45:12;;;;;;;;;;;;;;;;;;4977206;28;861;-69
2021/04/05 20:47:56;;;;;;;;;;;;;;;;;;4976038;28;845;-68
2021/04/05 20:50:31;;;;;;;;;;;;;;;;;;4976004;28;1398;-68
2021/04/05 20:52:56;;;;;;;;;;;;;;;;;;4977181;28;864;-68
2021/04/05 20:55:31;;;;;;;;;;;;;;;;;;4976780;28;1902;-68
2021/04/05 20:58:02;;;;;;;;;;;;;;;;;;4975921;28;809;-69
2021/04/05 21:00:31;;;;;;;;;;;;;;;;;;4977018;28;1272;-69
2021/04/05 21:02:57;;;;;;;;;;;;;;;;;;4977113;28;952;-67
2021/04/05 21:05:24;;;;;;;;;;;;;;;;;;4976886;28;868;-68
2021/04/05 21:07:49;;;;;;;;;;;;;;;;;;4977154;28;790;-68
2021/04/05 21:10:16;;;;;;;;;;;;;;;;;;4975842;28;1422;-68
2021/04/05 21:13:02;;;;;;;;;;;;;;;;;;4976922;28;975;-69
2021/04/05 21:15:30;;;;;;;;;;;;;;;;;;4975338;28;1906;-70
2021/04/05 21:17:58;;;;;;;;;;;;;;;;;;4976670;28;849;-69
2021/04/05 21:20:37;;;;;;;;;;;;;;;;;;4975736;28;1339;-68
2021/04/05 21:23:15;;;;;;;;;;;;;;;;;;4976552;28;909;-68
2021/04/05 21:25:42;;;;;;;;;;;;;;;;;;4975431;28;1542;-69
2021/04/05 21:28:10;;;;;;;;;;;;;;;;;;4975490;28;2301;-69
2021/04/05 21:30:40;;;;;;;;;;;;;;;;;;4976563;28;1390;-69
2021/04/05 21:33:07;;;;;;;;;;;;;;;;;;4975257;28;1667;-68
2021/04/05 21:35:36;;;;;;;;;;;;;;;;;;4974924;28;1950;-69
2021/04/05 21:38:03;;;;;;;;;;;;;;;;;;4975898;28;854;-70
2021/04/05 21:40:34;;;;;;;;;;;;;;;;;;4975290;28;1311;-70
2021/04/05 21:43:06;;;;;;;;;;;;;;;;;;4976262;28;818;-69
2021/04/05 21:45:35;;;;;;;;;;;;;;;;;;4976109;28;892;-69
2021/04/05 21:48:00;;;;;;;;;;;;;;;;;;4975249;28;1238;-69
2021/04/05 21:50:27;;;;;;;;;;;;;;;;;;4976068;28;1315;-68
2021/04/05 21:52:53;;;;;;;;;;;;;;;;;;4975151;28;1309;-69
2021/04/05 21:55:29;;;;;;;;;;;;;;;;;;4975978;28;1956;-70
2021/04/05 21:57:55;;;;;;;;;;;;;;;;;;4975875;28;912;-70
2021/04/05 22:00:22;;;;;;;;;;;;;;;;;;4975941;28;1334;-70
2021/04/05 22:02:56;;;;;;;;;;;;;;;;;;4974528;28;1308;-69
2021/04/05 22:05:33;;;;;;;;;;;;;;;;;;4975744;28;885;-69
2021/04/05 22:07:58;;;;;;;;;;;;;;;;;;4975902;28;1056;-69
2021/04/05 22:10:29;;;;;;;;;;;;;;;;;;4975908;28;1370;-69
2021/04/05 22:13:04;;;;;;;;;;;;;;;;;;4974577;28;1201;-69
2021/04/05 22:15:35;;;;;;;;;;;;;;;;;;4975812;28;1903;-70
2021/04/05 22:18:08;;;;;;;;;;;;;;;;;;4975797;28;840;-70
2021/04/05 22:20:37;;;;;;;;;;;;;;;;;;4975635;28;1299;-69
2021/04/05 22:23:07;;;;;;;;;;;;;;;;;;4975615;28;877;-68
2021/04/05 22:25:37;;;;;;;;;;;;;;;;;;4975528;28;901;-68
2021/04/05 22:28:13;;;;;;;;;;;;;;;;;;4973998;28;1197;-68
2021/04/05 22:30:38;;;;;;;;;;;;;;;;;;4975593;28;1370;-68
2021/04/05 22:33:04;;;;;;;;;;;;;;;;;;4975475;28;833;-68
2021/04/05 22:35:33;;;;;;;;;;;;;;;;;;4973836;28;1965;-68
2021/04/05 22:38:09;;;;;;;;;;;;;;;;;;4975522;28;810;-68
2021/04/05 22:40:45;;;;;;;;;;;;;;;;;;4975340;28;1314;-68
2021/04/05 22:43:11;;;;;;;;;;;;;;;;;;4974107;28;1233;-69
2021/04/05 22:45:36;;;;;;;;;;;;;;;;;;4975059;28;838;-69
2021/04/05 22:48:06;;;;;;;;;;;;;;;;;;4975510;28;857;-70
2021/04/05 22:50:32;;;;;;;;;;;;;;;;;;4973344;28;1387;-70
2021/04/05 22:53:33;;;;;;;;;;;;;;;;;;4975420;28;849;-69
2021/04/05 22:55:59;;;;;;;;;;;;;;;;;;4968250;28;1914;-70
2021/04/05 22:58:28;;;;;;;;;;;;;;;;;;4974341;28;1193;-70
